Time;durP1;ratioP1;P1;durP2;ratioP2;P2;SDS_P1;SDS_P2;PMS_P1;PMS_P2;Temp;Humidity;BMP_temperature;BMP_pressure;BME280_temperature;BME280_humidity;BME280_pressure;Samples;Min_cycle;Max_cycle;Signal;HPM_P1;HPM_P2
2021/06/01 00:01:48;;;;;;;6.72;2.22;;;;;;;11.45;68.61;100568.22;1735048;82;21391;-59
2021/06/01 00:04:53;;;;;;;1.75;1.50;;;;;;;11.51;68.49;100568.05;1735475;82;21259;-58
2021/06/01 00:07:58;;;;;;;2.85;1.67;;;;;;;11.53;68.25;100567.32;1735130;82;21330;-60
2021/06/01 00:11:05;;;;;;;3.95;1.80;;;;;;;11.54;68.33;100553.97;1735061;82;21374;-59
2021/06/01 00:14:13;;;;;;;2.55;2.02;;;;;;;11.55;68.17;100556.54;1735049;82;21283;-58
2021/06/01 00:17:20;;;;;;;3.50;2.15;;;;;;;11.56;68.18;100552.75;1735362;82;21589;-58
2021/06/01 00:20:26;;;;;;;3.05;1.95;;;;;;;11.60;68.15;100551.38;1735025;82;21757;-58
2021/06/01 00:23:37;;;;;;;4.62;2.47;;;;;;;11.65;68.10;100552.25;1734918;82;21350;-58
2021/06/01 00:26:43;;;;;;;3.47;2.08;;;;;;;11.69;68.05;100553.58;1734832;82;21212;-59
2021/06/01 00:29:52;;;;;;;3.05;1.98;;;;;;;11.68;68.00;100547.27;1735495;81;21239;-59
2021/06/01 00:32:56;;;;;;;4.25;2.52;;;;;;;11.70;68.09;100555.31;1735118;82;21314;-59
2021/06/01 00:36:03;;;;;;;4.83;2.60;;;;;;;11.64;68.05;100546.40;1735337;82;21228;-59
2021/06/01 00:39:13;;;;;;;3.65;2.22;;;;;;;11.58;68.34;100553.94;1735477;82;21184;-59
2021/06/01 00:42:19;;;;;;;4.12;2.27;;;;;;;11.53;68.57;100564.08;1735087;82;21188;-58
2021/06/01 00:45:26;;;;;;;6.10;2.52;;;;;;;11.47;68.75;100558.45;1735025;82;21346;-60
2021/06/01 00:48:33;;;;;;;5.22;2.30;;;;;;;11.44;68.99;100555.55;1734981;82;21448;-59
2021/06/01 00:51:39;;;;;;;3.77;2.40;;;;;;;11.47;69.17;100557.08;1734927;82;21212;-58
2021/06/01 00:54:47;;;;;;;3.15;2.25;;;;;;;11.48;69.27;100558.27;1735612;82;21353;-61
2021/06/01 00:57:52;;;;;;;6.72;2.37;;;;;;;11.47;69.22;100569.41;1734920;82;21362;-59
2021/06/01 01:04:03;;;;;;;2.98;2.27;;;;;;;11.42;69.52;100564.97;1748387;81;21255;-58
2021/06/01 01:07:35;;;;;;;6.58;2.20;;;;;;;11.39;69.70;100556.59;1764045;81;21358;-58
2021/06/01 01:10:31;;;;;;;4.33;2.25;;;;;;;11.40;69.75;100557.46;1764116;81;21508;-58
2021/06/01 01:13:57;;;;;;;4.47;2.00;;;;;;;11.40;69.88;100555.55;1764147;81;21340;-61
2021/06/01 01:17:13;;;;;;;4.90;2.50;;;;;;;11.40;69.90;100559.67;1764129;81;21374;-61
2021/06/01 01:20:41;;;;;;;8.13;2.10;;;;;;;11.35;70.01;100555.22;1747967;81;21737;-59
2021/06/01 01:23:47;;;;;;;3.90;2.10;;;;;;;11.30;70.13;100549.95;1745247;81;21247;-60
2021/06/01 01:27:20;;;;;;;3.90;2.25;;;;;;;11.28;70.33;100556.11;1764282;81;21169;-60
2021/06/01 01:30:25;;;;;;;5.08;2.15;;;;;;;11.26;70.50;100561.77;1763859;81;21291;-60
2021/06/01 01:33:43;;;;;;;2.95;1.92;;;;;;;11.27;70.55;100570.36;1764017;81;21753;-59
2021/06/01 01:36:51;;;;;;;3.35;2.10;;;;;;;11.27;70.59;100573.59;1764119;81;21212;-58
2021/06/01 01:39:59;;;;;;;6.95;2.08;;;;;;;11.25;70.69;100563.32;1764065;81;21235;-59
2021/06/01 01:43:10;;;;;;;2.90;2.30;;;;;;;11.22;70.89;100574.64;1764036;81;21542;-59
2021/06/01 01:48:56;;;;;;;3.00;1.82;;;;;;;11.23;71.05;100568.98;1764231;81;21209;-59
2021/06/01 01:49:31;;;;;;;3.25;2.05;;;;;;;11.28;71.06;100575.30;1756105;81;21356;-60
2021/06/01 01:52:37;;;;;;;7.55;2.30;;;;;;;11.33;70.98;100572.89;1764261;81;21204;-60
2021/06/01 01:55:46;;;;;;;2.85;2.20;;;;;;;11.30;70.90;100563.66;1764130;81;21267;-59
2021/06/01 01:58:50;;;;;;;3.42;1.98;;;;;;;11.25;71.01;100567.43;1764269;81;21299;-60
2021/06/01 02:01:58;;;;;;;4.50;2.50;;;;;;;11.22;71.32;100565.05;1762558;81;21262;-58
2021/06/01 02:05:05;;;;;;;2.60;1.80;;;;;;;11.25;71.40;100567.43;1764381;81;21267;-58
2021/06/01 02:08:12;;;;;;;2.92;2.02;;;;;;;11.30;71.50;100569.13;1764254;80;21260;-59
2021/06/01 02:11:16;;;;;;;3.58;2.02;;;;;;;11.35;71.34;100562.61;1747837;81;21240;-58
2021/06/01 02:14:24;;;;;;;3.08;1.75;;;;;;;11.40;71.33;100557.46;1764277;81;21212;-58
2021/06/01 02:17:32;;;;;;;2.92;1.62;;;;;;;11.35;71.23;100555.77;1764297;81;21335;-58
2021/06/01 02:20:39;;;;;;;3.65;2.30;;;;;;;11.35;71.29;100557.12;1764277;81;21228;-58
2021/06/01 02:23:49;;;;;;;3.22;1.85;;;;;;;11.34;71.38;100557.64;1764336;81;21200;-59
2021/06/01 02:27:02;;;;;;;3.70;1.47;;;;;;;11.41;71.55;100561.90;1764324;81;21235;-58
2021/06/01 02:30:19;;;;;;;3.42;1.95;;;;;;;11.50;71.21;100560.83;1764379;81;21657;-57
2021/06/01 02:33:26;;;;;;;3.50;1.90;;;;;;;11.52;71.06;100557.41;1764472;81;21259;-58
2021/06/01 02:36:32;;;;;;;4.72;1.70;;;;;;;11.58;71.08;100558.92;1764379;81;21208;-58
2021/06/01 02:39:39;;;;;;;2.05;1.40;;;;;;;11.66;70.74;100560.80;1764265;81;21386;-58
2021/06/01 02:42:46;;;;;;;3.08;1.70;;;;;;;11.67;70.59;100561.16;1764405;81;21192;-59
2021/06/01 02:45:53;;;;;;;1.92;1.47;;;;;;;11.64;70.54;100565.59;1764231;81;21743;-59
2021/06/01 02:48:59;;;;;;;2.02;1.50;;;;;;;11.67;70.54;100568.02;1764353;81;21215;-59
2021/06/01 02:52:10;;;;;;;2.80;1.50;;;;;;;11.72;70.40;100552.71;1764337;81;21717;-59
2021/06/01 02:55:18;;;;;;;5.00;1.60;;;;;;;11.76;70.22;100555.95;1764224;81;21268;-58
2021/06/01 02:58:26;;;;;;;2.83;1.70;;;;;;;11.82;70.29;100554.73;1764258;81;21382;-59
2021/06/01 03:01:32;;;;;;;2.85;1.50;;;;;;;11.85;69.89;100549.39;1764296;81;21236;-60
2021/06/01 03:04:40;;;;;;;3.92;2.08;;;;;;;11.88;69.84;100544.91;1761527;81;21902;-53
2021/06/01 03:07:47;;;;;;;3.80;1.50;;;;;;;11.87;69.64;100536.35;1764106;81;21393;-55
2021/06/01 03:10:53;;;;;;;2.40;1.40;;;;;;;11.86;69.64;100540.14;1763910;81;21390;-53
2021/06/01 03:13:59;;;;;;;5.37;1.90;;;;;;;11.84;69.70;100536.18;1763873;81;21343;-54
2021/06/01 03:17:05;;;;;;;3.00;1.90;;;;;;;11.89;69.70;100524.69;1763894;81;21232;-53
2021/06/01 03:20:12;;;;;;;2.90;1.67;;;;;;;11.96;69.62;100536.63;1764076;81;21197;-53
2021/06/01 03:23:18;;;;;;;1.62;1.37;;;;;;;11.99;69.55;100523.41;1764052;81;21338;-52
2021/06/01 03:26:24;;;;;;;3.12;1.42;;;;;;;12.01;69.18;100525.97;1764042;81;21225;-53
2021/06/01 03:29:31;;;;;;;3.62;1.57;;;;;;;11.97;69.36;100523.27;1764027;81;21403;-54
2021/06/01 03:32:38;;;;;;;3.12;1.77;;;;;;;12.04;69.30;100526.47;1764023;81;21351;-54
2021/06/01 03:35:45;;;;;;;3.10;1.40;;;;;;;12.01;68.99;100522.72;1764015;81;21303;-53
2021/06/01 03:38:52;;;;;;;2.70;1.50;;;;;;;12.02;69.03;100520.30;1764083;81;21181;-54
2021/06/01 03:41:58;;;;;;;3.10;1.77;;;;;;;12.01;69.03;100519.98;1763935;81;21686;-54
2021/06/01 03:45:02;;;;;;;3.45;1.80;;;;;;;11.99;69.15;100508.83;1763955;81;21240;-54
2021/06/01 03:48:09;;;;;;;4.12;1.50;;;;;;;12.03;69.07;100510.19;1763800;81;21370;-53
2021/06/01 03:51:15;;;;;;;4.65;1.55;;;;;;;12.00;69.04;100505.91;1763777;81;21291;-52
2021/06/01 03:54:20;;;;;;;4.35;1.45;;;;;;;12.04;68.98;100499.03;1763812;81;21248;-53
2021/06/01 03:57:27;;;;;;;2.58;1.42;;;;;;;12.07;68.68;100496.42;1763886;81;21331;-52
2021/06/01 04:00:35;;;;;;;2.85;1.47;;;;;;;12.05;68.61;100507.59;1763897;81;21220;-55
2021/06/01 04:03:42;;;;;;;6.65;1.50;;;;;;;12.09;68.70;100502.59;1763845;81;21335;-52
2021/06/01 04:06:48;;;;;;;2.67;1.62;;;;;;;12.13;68.82;100508.04;1764027;81;21330;-55
2021/06/01 04:09:55;;;;;;;3.72;1.75;;;;;;;12.08;68.65;100503.64;1763785;81;21454;-52
2021/06/01 04:13:02;;;;;;;3.80;1.67;;;;;;;12.13;68.84;100499.81;1763828;81;21856;-54
2021/06/01 04:16:07;;;;;;;3.62;2.00;;;;;;;12.26;68.54;100504.17;1763787;81;21339;-53
2021/06/01 04:19:14;;;;;;;4.30;1.77;;;;;;;12.26;67.59;100493.19;1763830;81;21370;-54
2021/06/01 04:22:22;;;;;;;2.83;1.80;;;;;;;12.21;67.90;100497.00;1763673;81;21369;-53
2021/06/01 04:25:27;;;;;;;6.33;1.77;;;;;;;12.23;67.43;100486.70;1763430;81;21776;-53
2021/06/01 04:28:32;;;;;;;3.58;1.90;;;;;;;12.29;67.79;100487.33;1763650;81;21351;-53
2021/06/01 04:31:39;;;;;;;3.65;1.95;;;;;;;12.49;67.54;100492.67;1763249;80;21192;-53
2021/06/01 04:34:46;;;;;;;3.87;2.00;;;;;;;12.50;66.78;100501.73;1763445;81;21752;-53
2021/06/01 04:37:55;;;;;;;14.23;3.08;;;;;;;12.59;67.13;100516.58;1760160;81;21200;-54
2021/06/01 04:41:02;;;;;;;3.77;2.40;;;;;;;12.63;66.57;100512.44;1737326;82;21395;-53
2021/06/01 04:44:07;;;;;;;5.65;2.75;;;;;;;12.57;66.10;100504.09;1737081;82;21189;-53
2021/06/01 04:47:12;;;;;;;8.48;2.62;;;;;;;12.56;66.29;100494.16;1745710;81;21374;-53
2021/06/01 04:50:20;;;;;;;10.72;2.80;;;;;;;12.61;66.10;100496.66;1732147;82;21259;-53
2021/06/01 04:53:26;;;;;;;8.05;2.58;;;;;;;12.71;66.05;100501.37;1755015;80;21342;-53
2021/06/01 04:56:31;;;;;;;6.55;2.67;;;;;;;12.77;65.78;100502.00;1755373;80;21216;-52
2021/06/01 04:59:37;;;;;;;5.53;3.05;;;;;;;12.80;65.60;100501.63;1758819;80;21745;-53
2021/06/01 05:02:44;;;;;;;6.05;2.70;;;;;;;12.79;65.02;100502.67;1731214;82;21192;-52
2021/06/01 05:05:53;;;;;;;10.25;3.60;;;;;;;12.74;65.16;100498.77;1750864;80;21204;-52
2021/06/01 05:08:59;;;;;;;10.18;3.33;;;;;;;12.78;65.53;100504.23;1772608;80;21199;-52
2021/06/01 05:12:04;;;;;;;6.22;2.80;;;;;;;12.88;65.89;100498.80;1770719;80;21204;-54
2021/06/01 05:15:14;;;;;;;10.70;4.40;;;;;;;13.02;65.37;100515.84;1762215;81;21232;-55
2021/06/01 05:18:21;;;;;;;7.97;3.92;;;;;;;13.04;64.71;100504.66;1762671;81;21299;-56
2021/06/01 05:21:29;;;;;;;7.45;3.10;;;;;;;13.11;64.44;100508.37;1754834;81;21227;-54
2021/06/01 05:24:33;;;;;;;9.20;3.10;;;;;;;13.13;64.57;100511.77;1755031;81;21247;-56
2021/06/01 05:27:39;;;;;;;8.88;3.70;;;;;;;13.19;64.55;100511.86;1762332;81;21215;-56
2021/06/01 05:31:03;;;;;;;6.85;3.80;;;;;;;13.18;64.31;100500.55;1762396;81;21793;-56
2021/06/01 05:34:05;;;;;;;8.25;3.00;;;;;;;13.25;64.17;100503.39;1763309;81;21274;-56
2021/06/01 05:37:11;;;;;;;7.97;2.90;;;;;;;13.36;63.78;100516.16;1763772;81;21213;-56
2021/06/01 05:40:18;;;;;;;6.20;3.27;;;;;;;13.34;63.73;100515.98;1763733;81;21231;-56
2021/06/01 05:43:25;;;;;;;8.10;3.55;;;;;;;13.40;64.36;100519.34;1755953;81;21210;-60
2021/06/01 05:46:31;;;;;;;12.37;3.47;;;;;;;13.57;63.70;100518.13;1733823;82;21357;-55
2021/06/01 05:49:37;;;;;;;6.60;3.52;;;;;;;13.65;62.94;100513.89;1745441;81;21203;-55
2021/06/01 05:52:44;;;;;;;7.78;3.92;;;;;;;13.57;62.91;100517.26;1734544;82;21222;-54
2021/06/01 05:55:51;;;;;;;5.30;3.45;;;;;;;13.59;62.92;100531.68;1745503;81;21212;-55
2021/06/01 05:59:03;;;;;;;6.85;3.35;;;;;;;13.62;62.55;100522.50;1734726;82;21307;-54
2021/06/01 06:02:11;;;;;;;6.03;3.90;;;;;;;13.60;62.68;100529.25;1734355;82;21235;-55
2021/06/01 06:05:21;;;;;;;10.38;3.90;;;;;;;13.60;62.49;100536.13;1745835;81;21230;-55
2021/06/01 06:08:30;;;;;;;6.90;3.52;;;;;;;13.44;62.70;100540.80;1735869;81;21283;-55
2021/06/01 06:11:36;;;;;;;11.00;4.67;;;;;;;13.41;63.28;100533.45;1734843;82;21204;-55
2021/06/01 06:14:46;;;;;;;14.70;3.60;;;;;;;13.52;62.62;100527.47;1745649;82;21230;-55
2021/06/01 06:18:27;;;;;;;8.55;3.27;;;;;;;13.54;62.78;100523.47;1745961;81;21207;-55
2021/06/01 06:21:33;;;;;;;9.10;3.47;;;;;;;13.61;62.97;100518.56;1738830;81;21187;-55
2021/06/01 06:24:40;;;;;;;5.10;3.37;;;;;;;13.82;62.39;100520.00;1720129;82;21280;-54
2021/06/01 06:27:52;;;;;;;10.10;3.70;;;;;;;13.90;61.21;100500.63;1698276;84;21754;-54
2021/06/01 06:30:58;;;;;;;4.72;3.60;;;;;;;13.84;61.27;100525.66;1676113;85;21251;-55
2021/06/01 06:34:05;;;;;;;9.63;3.70;;;;;;;13.92;61.52;100522.77;1676159;85;21287;-54
2021/06/01 06:37:13;;;;;;;8.73;2.83;;;;;;;13.96;61.11;100519.97;1702437;84;21225;-54
2021/06/01 06:40:19;;;;;;;11.28;3.67;;;;;;;13.95;60.21;100509.16;1734699;82;21228;-56
2021/06/01 06:43:24;;;;;;;11.10;4.22;;;;;;;13.85;60.47;100518.23;1745906;81;21207;-53
2021/06/01 06:46:36;;;;;;;7.65;3.12;;;;;;;13.82;61.08;100518.63;1730636;82;21262;-54
2021/06/01 06:49:39;;;;;;;5.95;3.15;;;;;;;13.97;61.17;100516.70;1728884;82;21193;-54
2021/06/01 06:52:47;;;;;;;7.12;2.95;;;;;;;13.98;60.65;100523.39;1734426;82;21187;-54
2021/06/01 06:55:53;;;;;;;8.88;3.33;;;;;;;13.94;60.89;100519.85;1715976;83;21756;-55
2021/06/01 06:59:00;;;;;;;3.65;2.60;;;;;;;14.11;60.78;100518.55;1716219;83;21244;-55
2021/06/01 07:02:05;;;;;;;7.65;2.87;;;;;;;14.15;60.32;100523.47;1703124;83;21197;-56
2021/06/01 07:05:19;;;;;;;5.53;2.95;;;;;;;14.17;60.00;100526.89;1758358;81;21726;-55
2021/06/01 07:08:24;;;;;;;7.55;2.65;;;;;;;14.15;59.65;100531.73;1751371;80;21213;-54
2021/06/01 07:11:34;;;;;;;6.60;2.80;;;;;;;14.05;59.53;100522.09;1758686;81;21880;-54
2021/06/01 07:14:46;;;;;;;3.30;2.40;;;;;;;13.99;59.22;100516.83;1753525;81;21364;-54
2021/06/01 07:17:51;;;;;;;6.85;3.17;;;;;;;13.82;59.47;100522.75;1763681;81;21173;-55
2021/06/01 07:21:00;;;;;;;7.87;2.70;;;;;;;13.69;59.93;100522.59;1763342;81;21225;-54
2021/06/01 07:24:05;;;;;;;4.33;2.80;;;;;;;13.69;60.37;100525.34;1741897;80;21728;-55
2021/06/01 07:27:12;;;;;;;5.47;2.50;;;;;;;13.68;59.96;100527.26;1762687;81;21579;-56
2021/06/01 07:30:19;;;;;;;4.22;2.12;;;;;;;13.54;59.85;100521.26;1763492;81;21246;-56
2021/06/01 07:33:24;;;;;;;6.55;2.52;;;;;;;13.49;60.50;100519.05;1763897;81;21188;-55
2021/06/01 07:36:32;;;;;;;3.92;2.35;;;;;;;13.46;60.58;100523.56;1763441;80;21233;-55
2021/06/01 07:39:41;;;;;;;3.67;2.70;;;;;;;13.48;60.61;100508.25;1733946;83;21243;-56
2021/06/01 07:42:50;;;;;;;9.98;2.95;;;;;;;13.50;60.66;100534.53;1734027;83;21209;-58
2021/06/01 07:45:56;;;;;;;10.28;3.52;;;;;;;13.53;60.61;100527.27;1758033;81;21234;-55
2021/06/01 07:49:02;;;;;;;5.80;3.02;;;;;;;13.58;60.25;100517.58;1763934;81;21202;-56
2021/06/01 07:52:08;;;;;;;4.90;3.42;;;;;;;13.57;60.30;100515.88;1733505;83;21244;-53
2021/06/01 07:55:15;;;;;;;26.00;4.00;;;;;;;13.51;60.39;100525.23;1737783;80;21964;-57
2021/06/01 07:58:23;;;;;;;11.03;3.58;;;;;;;13.56;60.69;100514.19;1754160;80;21611;-56
2021/06/01 08:01:31;;;;;;;6.58;3.20;;;;;;;13.47;60.26;100526.67;1742505;80;21234;-55
2021/06/01 08:04:37;;;;;;;7.50;3.90;;;;;;;13.36;60.73;100522.16;1754522;81;21727;-55
2021/06/01 08:07:43;;;;;;;7.65;3.10;;;;;;;13.41;60.52;100534.83;1763757;81;21241;-55
2021/06/01 08:10:50;;;;;;;6.12;3.90;;;;;;;13.34;60.51;100522.35;1760627;81;21213;-55
2021/06/01 08:13:55;;;;;;;9.83;3.25;;;;;;;13.41;60.82;100526.03;1713384;83;22131;-56
2021/06/01 08:17:04;;;;;;;13.15;4.22;;;;;;;13.53;60.75;100519.53;1712955;83;21184;-54
2021/06/01 08:20:16;;;;;;;7.95;3.83;;;;;;;13.69;60.57;100524.83;1713175;83;21231;-55
2021/06/01 08:23:21;;;;;;;21.00;3.45;;;;;;;13.88;60.14;100528.86;1713818;81;21230;-55
2021/06/01 08:26:28;;;;;;;7.08;3.40;;;;;;;14.05;59.12;100517.97;1747402;81;21390;-54
2021/06/01 08:29:32;;;;;;;19.17;3.77;;;;;;;14.08;59.19;100518.95;1743861;81;21224;-54
2021/06/01 08:32:38;;;;;;;8.40;3.33;;;;;;;14.11;58.35;100514.42;1756897;80;21263;-55
2021/06/01 08:35:45;;;;;;;10.50;3.15;;;;;;;14.20;57.75;100519.61;1763190;81;21217;-56
2021/06/01 08:38:51;;;;;;;11.75;3.58;;;;;;;14.24;57.80;100517.33;1763459;81;21231;-54
2021/06/01 08:41:57;;;;;;;10.40;3.30;;;;;;;14.30;58.04;100513.27;1713766;83;21188;-56
2021/06/01 08:45:03;;;;;;;8.90;3.85;;;;;;;14.47;57.91;100514.73;1714183;83;21267;-54
2021/06/01 08:48:13;;;;;;;6.67;3.75;;;;;;;14.61;57.13;100515.69;1740120;81;21351;-54
2021/06/01 08:51:23;;;;;;;8.60;4.30;;;;;;;14.59;56.64;100510.89;1713419;83;21620;-54
2021/06/01 08:54:28;;;;;;;5.35;4.20;;;;;;;14.54;56.87;100505.98;1713867;83;21443;-55
2021/06/01 08:57:35;;;;;;;7.78;3.70;;;;;;;14.41;56.63;100522.93;1712596;83;21267;-54
2021/06/01 09:00:40;;;;;;;4.40;3.10;;;;;;;14.30;57.25;100513.27;1713130;83;21232;-54
2021/06/01 09:03:56;;;;;;;10.55;2.62;;;;;;;14.21;57.42;100515.80;1713397;83;21207;-54
2021/06/01 09:07:02;;;;;;;12.80;3.45;;;;;;;14.11;58.22;100503.41;1714055;83;21840;-55
2021/06/01 09:24:03;;;;;;;9.23;3.22;;;;;;;13.92;57.92;100499.38;1751501;82;21344;-54
2021/06/01 09:27:23;;;;;;;10.72;3.70;;;;;;;13.81;57.82;100505.38;1752070;82;21296;-55
2021/06/01 09:30:58;;;;;;;7.47;3.47;;;;;;;13.78;58.19;100496.14;1751932;82;21229;-55
2021/06/01 09:34:00;;;;;;;7.67;4.33;;;;;;;13.94;58.12;100494.53;1726388;82;21358;-55
2021/06/01 09:37:27;;;;;;;8.28;3.30;;;;;;;14.05;57.62;100486.31;1755463;81;21422;-55
2021/06/01 09:40:37;;;;;;;4.60;3.40;;;;;;;14.09;57.90;100489.84;1740648;81;21758;-55
2021/06/01 09:44:00;;;;;;;4.28;2.80;;;;;;;14.12;57.69;100495.47;1736706;82;21363;-55
2021/06/01 09:47:05;;;;;;;5.67;3.02;;;;;;;14.13;57.88;100495.82;1758143;81;21252;-55
2021/06/01 09:51:10;;;;;;;9.63;3.12;;;;;;;14.06;57.81;100493.51;1771121;80;21255;-56
2021/06/01 09:53:35;;;;;;;8.13;3.40;;;;;;;14.05;57.59;100494.56;1747796;80;21213;-55
2021/06/01 09:56:39;;;;;;;9.20;2.95;;;;;;;13.90;57.51;100495.13;1751693;82;21770;-59
2021/06/01 09:59:45;;;;;;;8.55;3.10;;;;;;;13.84;58.14;100486.27;1751585;82;21355;-56
2021/06/01 10:03:02;;;;;;;4.72;3.02;;;;;;;13.83;58.35;100493.67;1761210;81;21690;-59
2021/06/01 10:06:07;;;;;;;8.35;3.90;;;;;;;13.75;58.38;100492.95;1763680;81;21886;-57
2021/06/01 10:09:17;;;;;;;7.65;3.70;;;;;;;13.75;58.63;100493.78;1763026;81;21185;-56
2021/06/01 10:12:23;;;;;;;13.48;4.03;;;;;;;13.78;58.98;100485.14;1756233;80;21852;-58
2021/06/01 10:15:33;;;;;;;6.97;3.47;;;;;;;13.81;58.50;100492.17;1762684;81;21382;-58
2021/06/01 10:18:43;;;;;;;8.55;3.60;;;;;;;13.78;58.22;100492.02;1759271;81;21183;-58
2021/06/01 10:21:51;;;;;;;12.82;3.67;;;;;;;13.76;58.33;100482.27;1750538;82;21249;-58
2021/06/01 10:24:54;;;;;;;6.75;3.72;;;;;;;13.76;58.58;100474.87;1758868;80;21189;-57
2021/06/01 10:28:04;;;;;;;10.88;3.80;;;;;;;13.74;58.76;100497.59;1753125;81;21860;-57
2021/06/01 10:31:09;;;;;;;7.28;3.70;;;;;;;13.75;58.29;100492.95;1746079;81;21773;-57
2021/06/01 10:34:22;;;;;;;9.95;3.25;;;;;;;13.69;58.65;100485.45;1756113;81;21679;-57
2021/06/01 10:51:26;;;;;;;4.72;2.58;;;;;;;13.65;58.90;100481.39;1749397;81;21773;-62
2021/06/01 10:54:18;;;;;;;7.62;2.85;;;;;;;13.59;59.20;100475.30;1752984;80;21212;-62
2021/06/01 10:57:25;;;;;;;7.03;3.17;;;;;;;13.65;59.23;100474.52;1756798;80;21710;-64
2021/06/01 11:04:26;;;;;;;5.92;2.60;;;;;;;13.52;59.71;100477.95;1741560;82;22001;-62
2021/06/01 11:07:41;;;;;;;6.00;2.52;;;;;;;13.37;60.45;100477.11;1749360;80;21352;-64
2021/06/01 11:10:55;;;;;;;7.72;2.85;;;;;;;13.28;60.91;100475.01;1751472;82;21241;-62
2021/06/01 11:14:05;;;;;;;4.00;2.25;;;;;;;13.25;61.56;100471.27;1758896;80;21608;-64
2021/06/01 11:17:13;;;;;;;3.60;2.22;;;;;;;13.30;61.26;100468.77;1743251;81;21227;-64
2021/06/01 11:20:33;;;;;;;4.53;2.10;;;;;;;13.42;61.67;100468.63;1770422;80;21734;-63
2021/06/01 11:23:42;;;;;;;6.28;2.42;;;;;;;13.40;61.60;100469.34;1768828;80;21184;-62
2021/06/01 11:34:00;;;;;;;7.30;3.20;;;;;;;13.26;63.05;100483.95;1766435;81;21585;-64
2021/06/01 11:37:07;;;;;;;4.78;3.40;;;;;;;13.13;63.08;100486.52;1769520;81;21857;-61
2021/06/01 11:43:28;;;;;;;6.42;2.60;;;;;;;12.94;64.45;100495.80;1734589;82;21202;-62
2021/06/01 11:46:45;;;;;;;4.28;2.95;;;;;;;12.71;65.12;100504.64;1749852;82;21223;-64
2021/06/01 11:53:10;;;;;;;5.42;3.90;;;;;;;12.46;67.64;100500.41;1769794;81;21609;-62
2021/06/01 11:56:20;;;;;;;4.60;2.92;;;;;;;12.38;67.93;100510.09;1768227;81;21606;-63
2021/06/01 12:19:31;;;;;;;6.42;2.98;;;;;;;12.03;71.90;100515.68;1761875;81;21184;-63
2021/06/01 12:22:42;;;;;;;6.67;2.55;;;;;;;12.00;72.29;100510.56;1761883;81;21385;-62
2021/06/01 12:33:05;;;;;;;4.28;2.72;;;;;;;11.85;73.23;100508.24;1737960;81;21212;-65
2021/06/01 12:37:06;;;;;;;4.00;2.85;;;;;;;11.89;73.77;100509.61;1745823;81;21228;-64
2021/06/01 12:43:07;;;;;;;4.97;3.30;;;;;;;12.01;73.86;100506.26;1749433;80;21199;-62
2021/06/01 12:46:36;;;;;;;4.97;3.10;;;;;;;11.98;74.15;100511.25;1768545;80;21350;-63
2021/06/01 13:07:46;;;;;;;7.00;3.20;;;;;;;11.90;75.01;100505.30;1733379;83;21224;-61
2021/06/01 13:14:04;;;;;;;5.53;3.00;;;;;;;11.95;74.92;100501.50;1722921;83;21185;-60
2021/06/01 13:20:43;;;;;;;;;;;;;;;11.87;75.09;100497.95;1765403;80;21180;-63
2021/06/01 13:38:16;;;;;;;10.63;3.00;;;;;;;11.95;75.58;100483.67;1763106;81;21236;-62
2021/06/01 13:51:30;;;;;;;6.78;2.83;;;;;;;12.05;75.74;100488.37;1762623;80;21354;-59
2021/06/01 14:01:09;;;;;;;6.17;3.15;;;;;;;12.07;75.65;100481.88;1760945;81;21354;-60
2021/06/01 14:31:18;;;;;;;7.60;4.30;;;;;;;11.58;76.26;100504.59;1761919;81;21762;-62
2021/06/01 15:09:01;;;;;;;6.47;3.70;;;;;;;11.95;76.83;100488.30;1763933;81;21197;-60
2021/06/01 15:22:32;;;;;;;7.45;3.95;;;;;;;11.97;76.80;100493.09;1763893;81;21267;-59
2021/06/01 15:31:44;;;;;;;10.78;4.95;;;;;;;11.73;77.44;100493.25;1764486;81;21177;-62
2021/06/01 15:56:01;;;;;;;7.90;5.08;;;;;;;11.62;77.96;100484.85;1764394;81;21228;-59
2021/06/01 16:21:28;;;;;;;9.78;6.78;;;;;;;11.41;78.69;100481.05;1758705;81;21251;-58
2021/06/01 16:32:02;;;;;;;9.28;5.92;;;;;;;11.40;78.60;100483.45;1738043;82;21200;-59
2021/06/01 17:04:44;;;;;;;8.83;6.90;;;;;;;11.28;78.94;100481.61;1738181;82;21338;-60
2021/06/01 17:08:04;;;;;;;11.88;7.45;;;;;;;11.28;78.83;100473.90;1743726;82;21242;-59
2021/06/01 17:11:12;;;;;;;9.83;8.05;;;;;;;11.30;78.93;100471.34;1744040;81;21851;-61
2021/06/01 17:14:14;;;;;;;11.10;7.58;;;;;;;11.29;78.72;100457.81;1744736;81;21177;-61
2021/06/01 17:17:20;;;;;;;9.98;7.45;;;;;;;11.28;78.81;100462.44;1718463;82;21303;-61
2021/06/01 17:37:10;;;;;;;10.88;7.58;;;;;;;11.17;79.59;100481.14;1758773;81;21378;-61
2021/06/01 17:40:18;;;;;;;11.00;8.80;;;;;;;11.13;79.61;100477.06;1758639;81;21397;-60
2021/06/01 17:43:24;;;;;;;15.78;7.15;;;;;;;11.06;79.80;100474.67;1758649;81;21169;-59
2021/06/01 17:46:29;;;;;;;9.53;6.97;;;;;;;11.07;79.81;100470.92;1742795;81;21346;-61
2021/06/01 17:49:38;;;;;;;10.23;6.47;;;;;;;11.07;80.02;100472.30;1758545;81;21205;-59
2021/06/01 17:52:43;;;;;;;10.68;7.40;;;;;;;11.13;79.81;100474.32;1753330;81;21347;-59
2021/06/01 17:55:49;;;;;;;10.10;6.92;;;;;;;11.08;79.59;100470.75;1758631;81;21586;-64
2021/06/01 17:58:55;;;;;;;16.35;6.60;;;;;;;11.05;79.56;100468.88;1742747;81;21389;-62
2021/06/01 18:02:01;;;;;;;9.60;5.72;;;;;;;11.03;79.19;100475.90;1758341;81;21903;-61
2021/06/01 18:05:08;;;;;;;7.20;5.42;;;;;;;10.99;79.21;100465.48;1699376;84;21393;-59
2021/06/01 18:08:22;;;;;;;8.85;5.28;;;;;;;10.99;79.12;100475.06;1699236;84;21527;-60
2021/06/01 18:11:50;;;;;;;10.25;5.47;;;;;;;11.01;79.01;100477.09;1717598;81;21228;-59
2021/06/01 18:42:31;;;;;;;10.88;4.70;;;;;;;11.04;78.84;100494.53;1757413;81;21363;-59
2021/06/01 19:02:13;;;;;;;10.10;4.60;;;;;;;11.06;77.80;100491.11;1735527;82;21330;-59
2021/06/01 19:21:24;;;;;;;7.35;4.03;;;;;;;10.96;78.54;100478.13;1735722;82;21389;-62
2021/06/01 19:22:58;;;;;;;7.30;4.90;;;;;;;10.84;79.69;100489.13;1739485;81;21384;-64
2021/06/01 19:52:21;;;;;;;6.45;4.45;;;;;;;10.71;81.00;100455.95;1761833;81;21190;-60
2021/06/01 19:55:30;;;;;;;6.05;4.08;;;;;;;10.74;81.18;100453.72;1761946;81;21903;-60
2021/06/01 19:58:36;;;;;;;6.05;4.12;;;;;;;10.76;81.08;100469.47;1761847;81;21182;-60
2021/06/01 20:01:41;;;;;;;5.17;3.70;;;;;;;10.78;81.04;100458.34;1761848;81;21876;-61
2021/06/01 20:04:51;;;;;;;6.08;3.58;;;;;;;10.77;81.16;100460.72;1761699;81;21624;-59
2021/06/01 20:07:56;;;;;;;7.78;4.53;;;;;;;10.77;81.18;100456.11;1761729;81;21259;-59
2021/06/01 20:11:03;;;;;;;6.92;3.87;;;;;;;10.76;81.11;100448.07;1761802;81;21269;-60
2021/06/01 20:14:10;;;;;;;9.03;4.45;;;;;;;10.77;81.29;100454.73;1761766;81;21298;-62
2021/06/01 20:17:42;;;;;;;8.90;4.28;;;;;;;10.81;81.40;100453.88;1761696;81;21187;-58
2021/06/01 20:20:49;;;;;;;7.17;4.00;;;;;;;10.82;81.28;100440.52;1761962;81;21195;-61
2021/06/01 20:23:55;;;;;;;6.50;3.72;;;;;;;10.74;81.38;100444.14;1735114;82;21177;-61
2021/06/01 20:27:04;;;;;;;7.55;4.10;;;;;;;10.73;81.65;100442.45;1718113;82;21224;-58
2021/06/01 20:30:12;;;;;;;10.95;4.53;;;;;;;10.73;81.83;100436.97;1735279;82;21212;-57
2021/06/01 20:33:19;;;;;;;8.30;4.40;;;;;;;10.73;82.04;100440.21;1735773;82;21630;-57
2021/06/01 20:36:29;;;;;;;8.00;3.80;;;;;;;10.74;82.28;100446.02;1735325;82;21753;-58
2021/06/01 20:39:34;;;;;;;7.37;3.90;;;;;;;10.70;82.59;100433.22;1735371;82;21196;-59
2021/06/01 20:42:45;;;;;;;7.75;4.75;;;;;;;10.64;82.87;100447.58;1749524;81;21243;-59
2021/06/01 20:45:52;;;;;;;6.60;4.25;;;;;;;10.55;83.15;100442.66;1758695;81;21392;-59
2021/06/01 20:49:00;;;;;;;5.70;4.37;;;;;;;10.54;83.60;100438.19;1759000;81;21365;-59
2021/06/01 20:52:07;;;;;;;6.17;4.42;;;;;;;10.51;83.95;100439.91;1742923;81;21192;-57
2021/06/01 20:55:19;;;;;;;5.47;3.98;;;;;;;10.49;84.36;100439.25;1743750;81;21720;-59
2021/06/01 20:58:47;;;;;;;7.37;4.40;;;;;;;10.50;84.57;100434.11;1759199;81;21942;-58
2021/06/01 21:01:54;;;;;;;7.62;4.67;;;;;;;10.46;84.86;100443.67;1759088;81;21357;-59
2021/06/01 21:05:00;;;;;;;6.65;4.22;;;;;;;10.48;85.13;100427.94;1759099;81;21342;-58
2021/06/01 21:08:07;;;;;;;8.48;5.30;;;;;;;10.47;85.30;100439.06;1759038;81;21345;-59
2021/06/01 21:11:17;;;;;;;6.87;4.10;;;;;;;10.46;85.50;100444.22;1759050;81;21216;-60